Aérodrome :
LOGIN :

S'inscrire | Disclaimer

   EN    FR    IT 

 










Légende :    VFR   VFR Marginal   IFR   IFR Intensif   IFR Très Intensif
Visi : 
Plafond : 
>= 8 km
>= 3000ft
5 à 8 km
1000 à 3000 ft
1500m à 5 km
500 à 1000 ft
800 à 1500m
200 à 500 ft
< 800m
< 200 ft
Symboles :   Orages  Brouillard  Fortes neiges  Fortes précipitations  Vent > 20 kt
SIGMETs :   Divers  Orages  Givrage  Turbulence  Onde Orograph.  Cendres Volcan.






- Altitude de l'aérodrome : 157 ft
- Code IATA : LIL


LFQQ - Lille Lesquin

DERNIER METAR :
  • 240030Z AUTO 20006KT 3500 BR VV/// 01/01 Q1025 TEMPO 0500 FG

METARs EXPIRÉS :
  • 240000Z AUTO VRB02KT 1600 1200 R26/2300U R08/1600D BR VV/// 01/01 Q1026 TEMPO 0500 FG
  • 232330Z AUTO 13004KT 090V160 2200 -DZ BR VV/// 02/01 Q1026 TEMPO 0500 FG
  • 232300Z AUTO 12004KT 090V150 2500 BR OVC002 02/02 Q1026 BECMG VV///
  • 232230Z AUTO 11005KT 2600 BR OVC002 02/02 Q1026 BECMG VV///
  • 232200Z AUTO 09003KT 050V130 1700 BR VV/// 02/02 Q1026 NOSIG

TAF AMD TAF LFQQ
Valide du 24 à 00h jusqu'au 25 à 06h UTC


240043Z 2400/2506 06007KT 3500 BR OVC002
PROB40
TEMPO 2400/2410 0500 FG VV///
BECMG 2410/2413 OVC007
PROB30 2413/2416 7000 NSW BKN011
BECMG 2416/2419 OVC003
PROB40 2419/2506 0500 FG VV///
ATIS : +33 3 20 16 19 54



MET'MAP, la Météo Aéronautique d'un coup d'oeil ! - Copyright ORBIFLY Décembre 2007 - Disclaimer

ORBIFLY MET'MAP TEAM :

Programmation & Développement : Alexandra Zaïnal
Sur une idée originale de : Baudouin d'Aumeries
Assistance à la programmation : Marc-Olivier Méhu
Soutien technique & logistique : Manuel Goepfert

Contact : metmap@orbifly.com




SOURCES & CREDITS :

   NOAA